Time;durP1;ratioP1;P1;durP2;ratioP2;P2;SDS_P1;SDS_P2;PMS_P1;PMS_P2;Temp;Humidity;BMP_temperature;BMP_pressure;BME280_temperature;BME280_humidity;BME280_pressure;Samples;Min_cycle;Max_cycle;Signal;HPM_P1;HPM_P2
2022/09/19 00:02:17;;;;;;;2.10;1.05;;;17.10;62.80;;;;;;5072140;28;20175;-63
2022/09/19 00:04:43;;;;;;;3.03;1.10;;;17.10;62.80;;;;;;5073869;28;20190;-62
2022/09/19 00:07:08;;;;;;;2.53;1.13;;;17.00;62.70;;;;;;5073360;28;20197;-62
2022/09/19 00:09:34;;;;;;;1.92;1.17;;;17.10;62.70;;;;;;5072815;28;20171;-63
2022/09/19 00:12:00;;;;;;;1.67;1.10;;;17.00;62.70;;;;;;5073211;28;20202;-64
2022/09/19 00:14:28;;;;;;;2.15;1.05;;;17.00;62.70;;;;;;5073455;28;20177;-63
2022/09/19 00:16:59;;;;;;;3.25;1.05;;;17.00;62.70;;;;;;5072655;28;20236;-64
2022/09/19 00:19:25;;;;;;;1.90;1.10;;;17.00;62.70;;;;;;5073474;28;20176;-63
2022/09/19 00:21:54;;;;;;;2.63;1.00;;;17.00;62.70;;;;;;5073417;28;20555;-63
2022/09/19 00:27:05;;;;;;;2.63;1.00;;;17.00;62.80;;;;;;5072964;28;20185;-63
2022/09/19 00:29:32;;;;;;;2.80;1.00;;;17.10;62.80;;;;;;5073090;28;20661;-63
2022/09/19 00:31:57;;;;;;;2.13;1.00;;;17.00;62.70;;;;;;5072334;28;20244;-63
2022/09/19 00:34:23;;;;;;;1.67;1.13;;;17.00;62.80;;;;;;5073132;28;20633;-63
2022/09/19 00:36:49;;;;;;;2.05;1.20;;;17.00;62.70;;;;;;5073133;28;20178;-63
2022/09/19 00:39:16;;;;;;;4.55;1.13;;;17.00;62.80;;;;;;5072333;28;20177;-63
2022/09/19 00:41:42;;;;;;;2.40;1.23;;;17.00;62.80;;;;;;5072751;28;20174;-63
2022/09/19 00:44:23;;;;;;;2.90;1.00;;;17.00;62.80;;;;;;5072235;28;20174;-63
2022/09/19 00:47:12;;;;;;;2.00;1.00;;;17.00;62.90;;;;;;5073084;28;20202;-63
2022/09/19 00:49:40;;;;;;;3.22;1.40;;;17.00;62.90;;;;;;5071734;28;20224;-63
2022/09/19 00:52:13;;;;;;;1.55;0.88;;;17.00;62.90;;;;;;5070532;28;20214;-63
2022/09/19 00:54:40;;;;;;;1.88;1.10;;;17.00;62.80;;;;;;5055528;28;20170;-63
2022/09/19 00:57:06;;;;;;;1.92;1.00;;;17.00;62.80;;;;;;5072694;28;20189;-63
2022/09/19 00:59:34;;;;;;;2.17;0.95;;;17.00;62.80;;;;;;5054528;28;20170;-63
2022/09/19 01:02:02;;;;;;;2.50;1.60;;;17.00;62.80;;;;;;5072636;28;20186;-63
2022/09/19 01:04:35;;;;;;;2.78;1.15;;;16.90;62.90;;;;;;5072709;28;20171;-63
2022/09/19 01:07:22;;;;;;;2.22;0.93;;;16.90;62.80;;;;;;5071522;28;20179;-62
2022/09/19 01:10:14;;;;;;;2.45;1.00;;;17.00;62.80;;;;;;5071679;28;20206;-63
2022/09/19 01:12:55;;;;;;;2.47;0.98;;;17.00;62.90;;;;;;5070726;28;20217;-64
2022/09/19 01:15:30;;;;;;;1.70;0.90;;;16.90;62.80;;;;;;5079314;28;20514;-64
2022/09/19 01:18:01;;;;;;;2.22;1.30;;;16.90;62.80;;;;;;5079465;28;20165;-63
2022/09/19 01:20:54;;;;;;;2.90;1.13;;;16.90;62.90;;;;;;5078794;28;20249;-63
2022/09/19 01:23:33;;;;;;;2.17;1.20;;;16.90;62.90;;;;;;5078770;28;20178;-63
2022/09/19 01:26:20;;;;;;;3.38;1.38;;;16.90;62.80;;;;;;5077677;28;20178;-63
2022/09/19 01:29:13;;;;;;;2.47;0.93;;;16.90;62.80;;;;;;5078040;28;20239;-63
2022/09/19 01:31:42;;;;;;;3.30;0.93;;;16.90;62.80;;;;;;5079158;28;20602;-63
2022/09/19 01:34:11;;;;;;;1.50;0.98;;;16.90;62.80;;;;;;5060587;28;20231;-63
2022/09/19 01:36:52;;;;;;;2.72;1.17;;;16.90;62.90;;;;;;5078168;28;20265;-63
2022/09/19 01:39:21;;;;;;;1.77;1.10;;;16.90;62.90;;;;;;5061672;28;20260;-63
2022/09/19 01:41:50;;;;;;;2.38;1.10;;;16.90;62.90;;;;;;5060900;28;20548;-63
2022/09/19 01:44:17;;;;;;;1.55;1.00;;;16.90;63.00;;;;;;5078893;28;20174;-64
2022/09/19 01:46:46;;;;;;;1.50;1.02;;;16.90;62.90;;;;;;5079298;28;20600;-63
2022/09/19 01:49:32;;;;;;;1.85;0.98;;;16.90;62.90;;;;;;5078044;28;20170;-63
2022/09/19 01:52:02;;;;;;;3.00;1.50;;;16.90;62.90;;;;;;5078989;28;20222;-62
2022/09/19 01:54:38;;;;;;;2.60;1.30;;;16.90;62.90;;;;;;5077072;28;20258;-63
2022/09/19 01:57:31;;;;;;;2.10;1.17;;;16.90;62.90;;;;;;5078885;28;20173;-63
2022/09/19 02:00:13;;;;;;;2.53;1.10;;;16.90;62.90;;;;;;5078686;28;20551;-63
2022/09/19 02:02:46;;;;;;;1.67;0.90;;;16.90;63.00;;;;;;5061449;28;20177;-63
2022/09/19 02:05:35;;;;;;;2.90;1.02;;;16.80;62.90;;;;;;5077465;28;20174;-63
2022/09/19 02:08:15;;;;;;;2.17;1.20;;;16.90;62.90;;;;;;5077349;28;20703;-62
2022/09/19 02:10:46;;;;;;;1.98;1.30;;;16.90;63.00;;;;;;5078294;28;20183;-63
2022/09/19 02:13:12;;;;;;;1.33;0.90;;;16.90;63.00;;;;;;5061284;28;20197;-63
2022/09/19 02:15:37;;;;;;;3.05;1.38;;;16.90;63.00;;;;;;5077253;28;20171;-63
2022/09/19 02:18:26;;;;;;;1.58;1.00;;;16.80;62.90;;;;;;5077544;28;20231;-63
2022/09/19 02:20:55;;;;;;;1.48;0.93;;;16.90;63.00;;;;;;5077871;28;20240;-63
2022/09/19 02:23:24;;;;;;;2.35;1.23;;;16.90;63.00;;;;;;5076663;28;20186;-63
2022/09/19 02:25:50;;;;;;;2.65;1.00;;;16.90;63.90;;;;;;5074195;28;20532;-63
2022/09/19 02:28:21;;;;;;;2.15;1.23;;;16.90;63.00;;;;;;5074250;28;20520;-63
2022/09/19 02:30:47;;;;;;;3.70;1.05;;;16.90;63.00;;;;;;5057737;28;20166;-63
2022/09/19 02:33:12;;;;;;;2.28;1.13;;;16.80;63.00;;;;;;5057459;28;20182;-62
2022/09/19 02:35:59;;;;;;;1.70;0.93;;;16.80;62.90;;;;;;5074526;28;20535;-63
2022/09/19 02:38:28;;;;;;;2.67;1.20;;;16.90;63.00;;;;;;5058034;28;20240;-63
2022/09/19 02:41:01;;;;;;;0.80;0.80;;;16.80;62.90;;;;;;5074095;28;20181;-63
2022/09/19 02:43:39;;;;;;;3.30;1.08;;;16.80;62.90;;;;;;5072546;28;20232;-63
2022/09/19 02:46:10;;;;;;;2.85;1.15;;;16.80;62.90;;;;;;5058600;28;20170;-63
2022/09/19 02:49:13;;;;;;;1.58;1.02;;;16.80;62.90;;;;;;5073994;28;20206;-63
2022/09/19 02:51:44;;;;;;;2.33;1.10;;;16.80;62.90;;;;;;5071395;28;20267;-63
2022/09/19 02:54:15;;;;;;;1.00;0.90;;;16.80;62.90;;;;;;5057865;28;20174;-63
2022/09/19 02:56:41;;;;;;;1.10;1.00;;;16.80;63.00;;;;;;5057636;28;20644;-63
2022/09/19 02:59:17;;;;;;;2.40;0.95;;;16.80;62.90;;;;;;5072795;28;20170;-63
2022/09/19 03:01:46;;;;;;;2.22;0.90;;;16.80;63.00;;;;;;5057683;28;20174;-63
2022/09/19 03:04:14;;;;;;;3.40;1.23;;;16.80;63.00;;;;;;5073643;28;20178;-63
2022/09/19 03:06:46;;;;;;;2.67;1.17;;;16.80;63.00;;;;;;5056816;28;20174;-62
2022/09/19 03:09:13;;;;;;;1.73;0.70;;;16.80;63.00;;;;;;5074383;28;20219;-62
2022/09/19 03:11:40;;;;;;;1.80;1.10;;;16.80;63.10;;;;;;5056724;28;20677;-63
2022/09/19 03:14:07;;;;;;;2.78;0.90;;;16.80;63.10;;;;;;5056981;28;20178;-64
2022/09/19 03:16:35;;;;;;;1.27;0.90;;;16.80;63.10;;;;;;5074844;28;20550;-63
2022/09/19 03:19:05;;;;;;;2.22;1.10;;;16.80;63.10;;;;;;5073813;28;20185;-63
2022/09/19 03:21:32;;;;;;;2.55;1.05;;;16.70;63.00;;;;;;5056814;28;20177;-63
2022/09/19 03:23:58;;;;;;;1.20;0.80;;;16.80;63.00;;;;;;5073212;28;20178;-63
2022/09/19 03:26:27;;;;;;;2.30;0.90;;;16.80;63.00;;;;;;5073803;28;20183;-63
2022/09/19 03:28:56;;;;;;;2.47;1.00;;;16.70;63.00;;;;;;5074628;28;20178;-63
2022/09/19 03:31:22;;;;;;;3.33;1.00;;;16.80;63.10;;;;;;5074319;28;20202;-63
2022/09/19 03:33:48;;;;;;;1.60;0.90;;;16.80;63.10;;;;;;5073742;28;20198;-63
2022/09/19 03:36:14;;;;;;;3.20;0.70;;;16.70;62.90;;;;;;5073480;28;20179;-64
2022/09/19 03:38:44;;;;;;;1.33;0.90;;;16.70;63.00;;;;;;5073694;28;20253;-63
2022/09/19 03:41:14;;;;;;;2.20;1.00;;;16.80;63.00;;;;;;5073086;28;20641;-63
2022/09/19 03:43:42;;;;;;;1.85;1.00;;;16.70;63.10;;;;;;5074469;28;20214;-63
2022/09/19 03:46:11;;;;;;;2.35;1.13;;;16.70;63.10;;;;;;5073778;28;20550;-63
2022/09/19 03:48:40;;;;;;;2.40;1.08;;;16.70;63.10;;;;;;5073472;28;20182;-63
2022/09/19 03:51:06;;;;;;;2.75;1.48;;;16.70;63.00;;;;;;5073642;28;20580;-63
2022/09/19 03:53:31;;;;;;;2.47;0.90;;;16.70;63.00;;;;;;5073777;28;20186;-63
2022/09/19 03:55:57;;;;;;;2.08;1.15;;;16.70;63.00;;;;;;5073127;28;20174;-63
2022/09/19 03:58:26;;;;;;;1.80;1.10;;;16.70;63.00;;;;;;5073980;28;20185;-63
2022/09/19 04:00:52;;;;;;;1.67;0.90;;;16.70;63.10;;;;;;5073764;28;20174;-63
2022/09/19 04:03:23;;;;;;;2.90;1.05;;;16.70;63.10;;;;;;5072919;28;20178;-63
2022/09/19 04:05:51;;;;;;;2.45;1.08;;;16.70;63.10;;;;;;5073933;28;20171;-62
2022/09/19 04:08:16;;;;;;;1.33;0.85;;;16.70;63.20;;;;;;5072563;28;20234;-62
2022/09/19 04:10:42;;;;;;;2.75;1.35;;;16.70;63.10;;;;;;5073771;28;20193;-63
2022/09/19 04:13:09;;;;;;;2.65;1.20;;;16.70;63.20;;;;;;5073398;28;20285;-63
2022/09/19 04:15:34;;;;;;;2.22;1.10;;;16.70;63.10;;;;;;5073004;28;20178;-63
2022/09/19 04:18:00;;;;;;;2.72;1.00;;;16.70;63.20;;;;;;5073221;28;20182;-64
2022/09/19 04:20:29;;;;;;;1.38;0.93;;;16.70;63.20;;;;;;5073473;28;20173;-63
2022/09/19 04:22:59;;;;;;;2.22;0.90;;;16.70;63.20;;;;;;5072844;28;20232;-63
2022/09/19 04:25:29;;;;;;;1.33;0.80;;;16.70;63.20;;;;;;5073301;28;20253;-64
2022/09/19 04:27:55;;;;;;;3.65;1.17;;;16.70;63.20;;;;;;5073376;28;20319;-64
2022/09/19 04:30:23;;;;;;;1.52;0.85;;;16.70;63.20;;;;;;5072343;28;20253;-64
2022/09/19 04:32:50;;;;;;;2.50;1.30;;;16.70;63.20;;;;;;5073108;28;20207;-64
2022/09/19 04:35:15;;;;;;;2.42;1.30;;;16.70;63.20;;;;;;5073102;28;20170;-64
2022/09/19 04:37:41;;;;;;;1.00;0.90;;;16.70;63.20;;;;;;5072675;28;20682;-64
2022/09/19 04:40:07;;;;;;;1.25;0.93;;;16.70;63.20;;;;;;5072783;28;20519;-65
2022/09/19 04:42:34;;;;;;;1.70;1.00;;;16.70;63.20;;;;;;5073187;28;20239;-64
2022/09/19 04:44:59;;;;;;;3.72;0.98;;;16.70;63.20;;;;;;5072139;28;20178;-64
2022/09/19 04:47:25;;;;;;;2.58;0.90;;;16.70;63.30;;;;;;5072877;28;20182;-62
2022/09/19 04:49:50;;;;;;;1.95;0.95;;;16.60;63.20;;;;;;5072598;28;20537;-61
2022/09/19 04:52:16;;;;;;;1.42;0.82;;;16.60;63.10;;;;;;5071845;28;20684;-62
2022/09/19 04:54:42;;;;;;;1.98;0.90;;;16.60;63.10;;;;;;5072980;28;20171;-62
2022/09/19 04:57:08;;;;;;;3.45;1.17;;;16.70;63.30;;;;;;5072433;28;20186;-62
2022/09/19 04:59:34;;;;;;;2.13;0.70;;;16.70;63.20;;;;;;5072674;28;20174;-62
2022/09/19 05:02:00;;;;;;;2.72;1.10;;;16.60;63.20;;;;;;5072524;28;20640;-64
2022/09/19 05:04:26;;;;;;;2.10;0.90;;;16.60;63.10;;;;;;5072169;28;20188;-64
2022/09/19 05:06:51;;;;;;;2.85;1.23;;;16.60;63.10;;;;;;5072972;28;20181;-63
2022/09/19 05:09:17;;;;;;;2.40;1.13;;;16.60;63.20;;;;;;5072651;28;20599;-64
2022/09/19 05:11:46;;;;;;;2.15;1.10;;;16.60;63.20;;;;;;5072156;28;20306;-64
2022/09/19 05:14:13;;;;;;;2.80;0.98;;;16.60;63.20;;;;;;5072513;28;20174;-64
2022/09/19 05:16:39;;;;;;;1.52;0.77;;;16.60;63.20;;;;;;5072694;28;20185;-65
2022/09/19 05:19:05;;;;;;;2.05;1.10;;;16.60;63.10;;;;;;5071789;28;20181;-64
2022/09/19 05:21:32;;;;;;;1.90;0.75;;;16.60;63.20;;;;;;5072743;28;20170;-62
2022/09/19 05:23:58;;;;;;;1.88;0.90;;;16.60;63.20;;;;;;5072349;28;20174;-62
2022/09/19 05:26:23;;;;;;;1.27;0.82;;;16.60;63.20;;;;;;5071958;28;20170;-62
2022/09/19 05:28:50;;;;;;;1.00;0.85;;;16.60;63.10;;;;;;5072677;28;20258;-63
2022/09/19 05:31:16;;;;;;;4.72;1.15;;;16.60;63.20;;;;;;5072242;28;20194;-64
2022/09/19 05:33:42;;;;;;;2.35;1.00;;;16.60;63.20;;;;;;5071862;28;20178;-64
2022/09/19 05:36:07;;;;;;;1.60;1.10;;;16.60;63.20;;;;;;5072436;28;20265;-64
2022/09/19 05:38:34;;;;;;;2.33;1.05;;;16.60;63.20;;;;;;5072627;28;20182;-64
2022/09/19 05:41:01;;;;;;;4.47;1.00;;;16.60;63.20;;;;;;5071602;28;20163;-64
2022/09/19 05:43:26;;;;;;;3.58;1.65;;;16.60;63.20;;;;;;5072450;28;20179;-65
2022/09/19 05:45:52;;;;;;;2.53;1.20;;;16.60;63.20;;;;;;5072302;28;20229;-64
2022/09/19 05:48:18;;;;;;;3.08;1.27;;;16.60;63.20;;;;;;5071364;28;20608;-64
2022/09/19 05:50:44;;;;;;;1.75;0.90;;;16.60;63.20;;;;;;5072411;28;20181;-64
2022/09/19 05:55:57;;;;;;;1.48;1.15;;;16.60;63.20;;;;;;5072345;28;20186;-64
2022/09/19 05:58:23;;;;;;;1.75;0.85;;;16.60;63.20;;;;;;5072376;28;20170;-62
2022/09/19 06:00:49;;;;;;;2.40;1.23;;;16.60;63.10;;;;;;5073228;28;20625;-62
2022/09/19 06:03:20;;;;;;;1.80;0.80;;;16.60;63.10;;;;;;5075684;28;20181;-62
2022/09/19 06:05:47;;;;;;;1.58;0.75;;;16.60;63.20;;;;;;5076047;28;20180;-63
2022/09/19 06:08:13;;;;;;;0.90;0.73;;;16.60;63.20;;;;;;5074892;28;20240;-63
2022/09/19 06:10:40;;;;;;;2.13;0.90;;;16.60;63.20;;;;;;5076014;28;20207;-64
2022/09/19 06:13:07;;;;;;;1.35;0.60;;;16.60;63.10;;;;;;5075369;28;20582;-64
2022/09/19 06:15:33;;;;;;;1.38;1.08;;;16.60;63.20;;;;;;5075164;28;20193;-64
2022/09/19 06:17:59;;;;;;;2.35;1.20;;;16.70;63.20;;;;;;5075595;28;20197;-64
2022/09/19 06:20:25;;;;;;;1.38;0.90;;;16.70;63.10;;;;;;5075624;28;20621;-64
2022/09/19 06:23:01;;;;;;;2.78;1.05;;;16.80;63.00;;;;;;5075031;28;20170;-62
2022/09/19 06:25:31;;;;;;;2.25;0.98;;;16.80;62.90;;;;;;5075610;28;20205;-62
2022/09/19 06:27:57;;;;;;;1.85;0.90;;;16.80;62.80;;;;;;5075708;28;20167;-62
2022/09/19 06:30:23;;;;;;;3.22;1.10;;;16.80;62.80;;;;;;5074733;28;20214;-61
2022/09/19 06:32:49;;;;;;;3.13;1.40;;;16.80;62.80;;;;;;5075547;28;20238;-64
2022/09/19 06:35:15;;;;;;;2.28;0.90;;;16.80;62.90;;;;;;5075184;28;20213;-65
2022/09/19 06:37:41;;;;;;;3.58;1.25;;;16.80;62.90;;;;;;5074729;28;20198;-62
2022/09/19 06:40:07;;;;;;;3.95;1.17;;;16.90;63.40;;;;;;5074991;28;20198;-63
2022/09/19 06:42:33;;;;;;;5.90;1.30;;;16.90;63.50;;;;;;5075534;28;20186;-61
2022/09/19 06:44:58;;;;;;;4.95;1.20;;;17.00;63.70;;;;;;5074358;28;20239;-64
2022/09/19 06:47:24;;;;;;;3.13;1.10;;;17.10;63.70;;;;;;5075317;28;20197;-65
2022/09/19 06:49:49;;;;;;;5.00;1.48;;;17.20;63.40;;;;;;5074497;28;20652;-64
2022/09/19 06:52:15;;;;;;;8.10;1.50;;;17.30;63.30;;;;;;5074796;28;20224;-64
2022/09/19 06:54:41;;;;;;;6.47;1.17;;;17.40;63.10;;;;;;5075171;28;20179;-62
2022/09/19 06:57:07;;;;;;;5.25;0.90;;;17.40;63.00;;;;;;5074277;28;20564;-62
2022/09/19 06:59:32;;;;;;;4.35;1.60;;;17.60;62.70;;;;;;5074930;28;20175;-62
2022/09/19 07:01:58;;;;;;;4.50;1.58;;;17.70;62.50;;;;;;5074796;28;20166;-63
2022/09/19 07:04:23;;;;;;;3.88;1.45;;;17.80;62.20;;;;;;5074248;28;20220;-63
2022/09/19 07:06:49;;;;;;;3.38;1.20;;;17.80;62.10;;;;;;5074895;28;20247;-63
2022/09/19 07:09:14;;;;;;;6.68;1.30;;;17.80;62.20;;;;;;5074409;28;20271;-62
2022/09/19 07:11:40;;;;;;;4.25;1.40;;;17.80;62.40;;;;;;5073974;28;20266;-63
2022/09/19 07:14:05;;;;;;;2.53;1.60;;;17.80;62.60;;;;;;5074489;28;20175;-66
2022/09/19 07:16:31;;;;;;;2.83;1.30;;;17.80;62.60;;;;;;5074781;28;20641;-64
2022/09/19 07:18:57;;;;;;;2.88;1.05;;;17.80;62.50;;;;;;5073742;28;20175;-64
2022/09/19 07:21:22;;;;;;;7.28;1.30;;;17.80;62.50;;;;;;5074541;28;20537;-63
2022/09/19 07:23:48;;;;;;;2.55;1.35;;;17.90;62.40;;;;;;5074520;28;20171;-63
2022/09/19 07:26:14;;;;;;;3.92;1.42;;;17.90;62.40;;;;;;5073472;28;20198;-63
2022/09/19 07:28:40;;;;;;;4.30;1.00;;;17.90;62.40;;;;;;5074399;28;20645;-63
2022/09/19 07:31:05;;;;;;;2.88;1.10;;;17.80;62.50;;;;;;5074253;28;20228;-63
2022/09/19 07:33:31;;;;;;;3.17;1.40;;;17.80;62.50;;;;;;5073922;28;20179;-63
2022/09/19 07:35:56;;;;;;;4.28;1.77;;;17.70;62.50;;;;;;5073972;28;20178;-63
2022/09/19 07:38:23;;;;;;;5.18;1.30;;;17.70;62.70;;;;;;5074443;28;20664;-65
2022/09/19 07:40:49;;;;;;;3.92;1.25;;;17.70;62.70;;;;;;5073702;28;20180;-65
2022/09/19 07:43:16;;;;;;;4.60;1.30;;;17.70;62.80;;;;;;5073845;28;20178;-65
2022/09/19 07:45:50;;;;;;;5.05;1.55;;;17.60;62.80;;;;;;5074220;28;20186;-65
2022/09/19 07:48:15;;;;;;;3.47;1.30;;;17.60;62.80;;;;;;5073235;28;20199;-66
2022/09/19 07:50:41;;;;;;;3.55;1.10;;;17.60;62.90;;;;;;5074087;28;20264;-63
2022/09/19 07:53:14;;;;;;;3.17;1.50;;;17.60;62.80;;;;;;5072826;28;20210;-63
2022/09/19 07:55:42;;;;;;;4.10;1.30;;;17.50;62.90;;;;;;5074063;28;20171;-62
2022/09/19 07:58:10;;;;;;;2.30;1.10;;;17.60;63.20;;;;;;5073770;28;20178;-63
2022/09/19 08:00:36;;;;;;;6.47;1.45;;;17.60;63.30;;;;;;5073109;28;20174;-63
2022/09/19 08:03:03;;;;;;;3.30;1.50;;;17.60;63.40;;;;;;5073604;28;20262;-63
2022/09/19 08:05:32;;;;;;;2.17;1.25;;;17.60;63.30;;;;;;5073717;28;20182;-62
2022/09/19 08:07:58;;;;;;;2.53;1.13;;;17.60;63.20;;;;;;5071508;28;20226;-62
2022/09/19 08:10:23;;;;;;;3.70;1.35;;;17.70;63.00;;;;;;5073823;28;20182;-63
2022/09/19 08:12:49;;;;;;;3.13;1.10;;;17.70;62.90;;;;;;5073614;28;20249;-63
2022/09/19 08:15:16;;;;;;;4.50;1.33;;;17.80;62.90;;;;;;5072437;28;20209;-64
2022/09/19 08:17:56;;;;;;;2.75;1.23;;;17.80;62.80;;;;;;5073451;28;20174;-63
2022/09/19 08:20:22;;;;;;;2.50;1.27;;;17.80;62.70;;;;;;5073673;28;20536;-63
2022/09/19 08:22:47;;;;;;;2.03;1.00;;;17.80;62.70;;;;;;5072255;28;20162;-63
2022/09/19 08:25:14;;;;;;;3.38;1.30;;;17.80;62.70;;;;;;5073019;28;20550;-62
2022/09/19 08:27:43;;;;;;;3.65;1.42;;;17.90;62.70;;;;;;5073455;28;20170;-63
2022/09/19 08:30:09;;;;;;;3.20;1.45;;;17.90;62.70;;;;;;5072268;28;20175;-62
2022/09/19 08:32:35;;;;;;;2.42;1.00;;;17.90;62.70;;;;;;5073145;28;20206;-64
2022/09/19 08:35:00;;;;;;;2.35;1.20;;;17.80;62.70;;;;;;5073046;28;20257;-65
2022/09/19 08:37:26;;;;;;;3.80;1.30;;;17.90;62.70;;;;;;5072583;28;20212;-63
2022/09/19 08:43:02;;;;;;;1.85;1.25;;;17.90;62.70;;;;;;5072377;28;20178;-64
2022/09/19 08:45:31;;;;;;;1.83;1.30;;;17.90;62.70;;;;;;5073260;28;20232;-63
2022/09/19 08:47:57;;;;;;;1.48;0.90;;;18.00;62.70;;;;;;5072986;28;20183;-63
2022/09/19 08:50:25;;;;;;;2.75;1.02;;;18.00;62.60;;;;;;5072315;28;20515;-63
2022/09/19 08:52:53;;;;;;;2.75;0.93;;;18.00;62.60;;;;;;5072963;28;20210;-63
2022/09/19 08:55:26;;;;;;;2.33;0.90;;;18.00;62.70;;;;;;5055001;28;20174;-63
2022/09/19 08:57:59;;;;;;;2.75;1.08;;;18.00;62.70;;;;;;5071188;28;20205;-64
2022/09/19 09:00:25;;;;;;;2.05;0.90;;;18.00;62.60;;;;;;5071914;28;20175;-65
2022/09/19 09:03:02;;;;;;;3.97;1.00;;;18.00;62.60;;;;;;5055084;28;20186;-65
2022/09/19 09:05:56;;;;;;;1.63;0.80;;;18.10;62.70;;;;;;5072243;28;20201;-64
2022/09/19 09:08:28;;;;;;;3.22;1.10;;;18.10;62.50;;;;;;5071702;28;20229;-64
2022/09/19 09:11:07;;;;;;;3.67;1.13;;;18.10;62.50;;;;;;5072003;28;20539;-65
2022/09/19 09:13:51;;;;;;;3.38;1.27;;;18.20;62.50;;;;;;5071803;28;20265;-63
2022/09/19 09:16:24;;;;;;;2.55;0.80;;;18.20;62.40;;;;;;5071143;28;20648;-63
2022/09/19 09:19:05;;;;;;;2.17;0.90;;;18.20;62.30;;;;;;5070792;28;20562;-65
2022/09/19 09:21:57;;;;;;;4.40;1.40;;;18.30;62.40;;;;;;5072782;28;20587;-62
2022/09/19 09:24:26;;;;;;;4.65;1.15;;;18.30;62.30;;;;;;5069505;28;20534;-63
2022/09/19 09:26:54;;;;;;;3.80;1.10;;;18.20;62.50;;;;;;5071416;28;20190;-62
2022/09/19 09:29:33;;;;;;;2.13;1.20;;;18.10;62.70;;;;;;5072537;28;20178;-63
2022/09/19 09:32:07;;;;;;;3.00;1.00;;;18.00;63.00;;;;;;5070598;28;20221;-63
2022/09/19 09:34:43;;;;;;;5.28;1.20;;;17.90;63.30;;;;;;5074211;28;20170;-64
2022/09/19 09:37:28;;;;;;;6.97;1.30;;;17.90;63.40;;;;;;5075015;28;20220;-64
2022/09/19 09:40:08;;;;;;;3.53;1.58;;;17.90;63.70;;;;;;5075623;28;20231;-63
2022/09/19 09:42:38;;;;;;;7.10;1.23;;;17.90;64.00;;;;;;5075701;28;20186;-65
2022/09/19 09:45:26;;;;;;;4.50;1.00;;;17.90;63.90;;;;;;5075152;28;20174;-64
2022/09/19 09:48:24;;;;;;;2.67;0.90;;;17.90;63.50;;;;;;5076051;28;20529;-64
2022/09/19 09:51:18;;;;;;;2.92;1.10;;;17.90;63.60;;;;;;5076593;28;20332;-64
2022/09/19 09:57:16;;;;;;;4.18;1.23;;;17.90;63.40;;;;;;5076134;28;20185;-65
2022/09/19 10:03:58;;;;;;;2.97;1.50;;;17.90;63.60;;;;;;5062379;28;20228;-64
2022/09/19 10:06:06;;;;;;;2.70;1.08;;;17.90;63.50;;;;;;5072695;28;20194;-64
2022/09/19 10:08:35;;;;;;;3.63;1.08;;;18.00;63.60;;;;;;5075101;28;20692;-65
2022/09/19 10:11:40;;;;;;;2.90;1.00;;;18.00;63.60;;;;;;5074749;28;20178;-65
2022/09/19 10:14:14;;;;;;;3.67;1.15;;;18.00;63.60;;;;;;5075030;28;20273;-66
2022/09/19 10:16:42;;;;;;;2.75;1.23;;;18.00;63.70;;;;;;5059037;28;20272;-66
2022/09/19 10:19:39;;;;;;;2.25;1.20;;;18.00;63.60;;;;;;5074537;28;20175;-66
2022/09/19 10:22:14;;;;;;;2.65;1.05;;;17.90;63.60;;;;;;5073614;28;20224;-66
2022/09/19 10:24:54;;;;;;;7.70;1.35;;;18.00;63.60;;;;;;5075631;28;20209;-65
2022/09/19 10:27:23;;;;;;;4.03;0.90;;;18.00;63.40;;;;;;5076522;28;20185;-64
2022/09/19 10:30:19;;;;;;;2.53;1.10;;;18.00;63.30;;;;;;5075155;28;20249;-67
2022/09/19 10:32:46;;;;;;;7.15;1.35;;;18.00;63.40;;;;;;5075717;28;20210;-63
2022/09/19 10:35:30;;;;;;;2.85;0.93;;;18.00;63.50;;;;;;5074611;28;20547;-63
2022/09/19 10:38:14;;;;;;;5.45;0.93;;;18.00;63.50;;;;;;5075714;28;20174;-63
2022/09/19 10:40:58;;;;;;;3.38;1.20;;;18.20;63.50;;;;;;5075834;28;20516;-64
2022/09/19 10:43:56;;;;;;;4.63;1.20;;;18.30;63.30;;;;;;5073696;28;20186;-64
2022/09/19 10:46:23;;;;;;;3.80;0.90;;;18.30;63.10;;;;;;5073312;28;20251;-63
2022/09/19 10:48:54;;;;;;;1.15;0.70;;;18.30;63.20;;;;;;5075052;28;20178;-63
2022/09/19 10:51:19;;;;;;;3.75;0.98;;;18.30;63.50;;;;;;5073949;28;20539;-63
2022/09/19 10:53:48;;;;;;;5.00;1.10;;;18.30;63.50;;;;;;5074116;28;20641;-63
2022/09/19 10:56:32;;;;;;;7.03;1.10;;;18.20;63.50;;;;;;5073104;28;20267;-63
2022/09/19 10:59:06;;;;;;;2.85;0.80;;;18.20;63.70;;;;;;5073923;28;20179;-63
2022/09/19 11:01:32;;;;;;;1.73;0.90;;;18.20;63.70;;;;;;5075238;28;20178;-64
2022/09/19 11:04:04;;;;;;;2.65;1.20;;;18.20;63.70;;;;;;5074093;28;20178;-64
2022/09/19 11:06:31;;;;;;;2.95;0.82;;;18.30;63.80;;;;;;5074862;28;20546;-64
2022/09/19 11:08:57;;;;;;;5.45;0.98;;;18.20;63.60;;;;;;5074348;28;20642;-63
2022/09/19 11:11:40;;;;;;;7.03;1.10;;;18.30;63.60;;;;;;5073067;28;20621;-64
2022/09/19 11:14:16;;;;;;;3.08;1.00;;;18.30;63.50;;;;;;5074591;28;20174;-65
2022/09/19 11:17:06;;;;;;;4.53;1.25;;;18.40;63.60;;;;;;5074881;28;20175;-65
2022/09/19 11:20:01;;;;;;;3.38;1.10;;;18.50;63.10;;;;;;5073727;28;20182;-64
2022/09/19 11:22:31;;;;;;;2.30;1.02;;;18.60;63.00;;;;;;5074825;28;20187;-64
2022/09/19 11:24:59;;;;;;;2.80;0.63;;;18.60;63.00;;;;;;5073831;28;20170;-64
2022/09/19 11:27:50;;;;;;;1.90;0.63;;;18.70;62.50;;;;;;5074514;28;20235;-61
2022/09/19 11:30:28;;;;;;;2.17;0.93;;;18.70;62.50;;;;;;5073117;28;20541;-61
2022/09/19 11:33:17;;;;;;;3.50;1.23;;;18.70;62.50;;;;;;5072336;28;20288;-60
2022/09/19 11:36:07;;;;;;;2.30;0.93;;;18.60;62.60;;;;;;5074285;28;20191;-60
2022/09/19 11:39:13;;;;;;;3.03;1.05;;;18.60;62.60;;;;;;5073826;28;20170;-61
2022/09/19 11:42:04;;;;;;;2.95;0.90;;;18.60;62.60;;;;;;5063403;28;20313;-61
2022/09/19 11:44:53;;;;;;;3.17;0.75;;;18.60;62.80;;;;;;5073182;28;20175;-61
2022/09/19 11:48:01;;;;;;;1.70;0.77;;;18.60;62.60;;;;;;5070026;28;20197;-64
2022/09/19 11:50:43;;;;;;;2.72;0.70;;;18.60;62.50;;;;;;5072949;28;20638;-64
2022/09/19 11:53:42;;;;;;;2.90;0.68;;;18.60;62.40;;;;;;5071753;28;20218;-63
2022/09/19 11:56:16;;;;;;;3.70;0.73;;;18.60;62.50;;;;;;5061697;28;20175;-63
2022/09/19 11:59:30;;;;;;;6.65;1.00;;;18.60;62.40;;;;;;5071677;28;20538;-63
2022/09/19 12:02:20;;;;;;;3.90;0.93;;;18.60;62.10;;;;;;5071746;28;20179;-63
2022/09/19 12:05:28;;;;;;;3.33;0.90;;;18.70;62.10;;;;;;5073740;28;20178;-63
2022/09/19 12:08:13;;;;;;;1.35;0.70;;;18.60;62.00;;;;;;5052445;28;20221;-63
2022/09/19 12:10:59;;;;;;;2.95;0.70;;;18.60;61.90;;;;;;5073858;28;20175;-66
2022/09/19 12:13:46;;;;;;;4.40;0.60;;;18.60;61.90;;;;;;5071648;28;20703;-64
2022/09/19 12:16:20;;;;;;;3.53;0.77;;;18.60;61.90;;;;;;5071924;28;20179;-64
2022/09/19 12:18:55;;;;;;;1.27;0.60;;;18.60;61.90;;;;;;5056211;28;20181;-63
2022/09/19 12:21:24;;;;;;;2.88;0.60;;;18.60;61.90;;;;;;5056013;28;20170;-63
2022/09/19 12:26:54;;;;;;;1.42;0.70;;;18.60;61.90;;;;;;5058992;28;20177;-63
2022/09/19 12:29:34;;;;;;;2.20;0.82;;;18.70;61.80;;;;;;5071050;28;20640;-63
2022/09/19 12:32:15;;;;;;;1.10;0.60;;;18.70;61.60;;;;;;5073006;28;20206;-63
2022/09/19 12:34:47;;;;;;;1.95;0.80;;;18.70;61.60;;;;;;5055260;28;20278;-63
2022/09/19 12:37:30;;;;;;;2.88;0.73;;;18.70;61.50;;;;;;5073196;28;20174;-63
2022/09/19 12:40:06;;;;;;;3.38;1.08;;;18.70;61.60;;;;;;5073341;28;20193;-63
2022/09/19 12:42:44;;;;;;;1.73;0.77;;;18.70;61.30;;;;;;5055566;28;20201;-63
2022/09/19 12:45:19;;;;;;;2.00;1.20;;;18.80;61.40;;;;;;5056467;28;20181;-63
2022/09/19 12:48:23;;;;;;;1.15;0.65;;;18.80;61.20;;;;;;5073144;28;20594;-63
2022/09/19 12:50:50;;;;;;;1.58;0.50;;;18.90;61.20;;;;;;5058567;28;20190;-63
2022/09/19 12:53:37;;;;;;;1.85;0.93;;;18.90;61.10;;;;;;5072809;28;20309;-63
2022/09/19 12:56:04;;;;;;;3.13;1.05;;;19.00;61.00;;;;;;5071204;28;20171;-63
2022/09/19 12:59:00;;;;;;;0.88;0.55;;;19.00;60.60;;;;;;5073122;28;20181;-63
2022/09/19 13:01:47;;;;;;;3.10;0.65;;;19.10;60.60;;;;;;5072983;28;20246;-63
2022/09/19 13:04:25;;;;;;;3.00;0.75;;;19.00;60.50;;;;;;5070837;28;20514;-63
2022/09/19 13:06:52;;;;;;;1.52;0.50;;;19.00;60.50;;;;;;5072874;28;20698;-63
2022/09/19 13:09:21;;;;;;;0.88;0.40;;;19.10;60.30;;;;;;5070854;28;20230;-63
2022/09/19 13:11:54;;;;;;;2.15;1.05;;;19.20;60.10;;;;;;5072144;28;20256;-63
2022/09/19 13:14:39;;;;;;;2.78;0.50;;;19.30;59.90;;;;;;5054847;28;20175;-63
2022/09/19 13:25:35;;;;;;;1.15;0.70;;;19.30;59.60;;;;;;5071044;28;20185;-63
2022/09/19 13:28:22;;;;;;;0.82;0.50;;;19.30;59.70;;;;;;5072710;28;20630;-63
2022/09/19 13:31:09;;;;;;;1.77;0.50;;;19.10;59.70;;;;;;5072082;28;20181;-63
2022/09/19 13:33:44;;;;;;;1.75;0.65;;;19.00;59.90;;;;;;5071453;28;20214;-63
2022/09/19 13:36:11;;;;;;;0.80;0.50;;;19.00;60.00;;;;;;5071014;28;20608;-63
2022/09/19 13:38:48;;;;;;;0.90;0.43;;;19.10;59.80;;;;;;5071750;28;20182;-63
2022/09/19 13:41:26;;;;;;;1.63;0.60;;;19.20;59.60;;;;;;5072107;28;20621;-63
2022/09/19 13:44:11;;;;;;;3.30;0.40;;;19.30;59.40;;;;;;5071409;28;20552;-63